sensor_id;sensor_type;location;lat;lon;timestamp;P1;durP1;ratioP1;P2;durP2;ratioP2
72156;SDS011;60035;52.122;5.406;2023-08-07T00:01:52;6.68;;;0.93;;
72156;SDS011;60035;52.122;5.406;2023-08-07T00:04:20;6.47;;;0.88;;
72156;SDS011;60035;52.122;5.406;2023-08-07T00:06:46;9.88;;;1.23;;
72156;SDS011;60035;52.122;5.406;2023-08-07T00:09:13;10.65;;;1.20;;
72156;SDS011;60035;52.122;5.406;2023-08-07T00:11:39;5.35;;;1.13;;
72156;SDS011;60035;52.122;5.406;2023-08-07T00:14:06;10.95;;;1.42;;
72156;SDS011;60035;52.122;5.406;2023-08-07T00:16:33;11.20;;;1.17;;
72156;SDS011;60035;52.122;5.406;2023-08-07T00:19:00;9.07;;;1.60;;
72156;SDS011;60035;52.122;5.406;2023-08-07T00:21:26;8.68;;;1.42;;
72156;SDS011;60035;52.122;5.406;2023-08-07T00:23:53;8.30;;;1.88;;
72156;SDS011;60035;52.122;5.406;2023-08-07T00:26:21;9.20;;;1.35;;
72156;SDS011;60035;52.122;5.406;2023-08-07T00:28:47;6.80;;;1.55;;
72156;SDS011;60035;52.122;5.406;2023-08-07T00:31:14;10.45;;;1.58;;
72156;SDS011;60035;52.122;5.406;2023-08-07T00:33:40;9.98;;;1.38;;
72156;SDS011;60035;52.122;5.406;2023-08-07T00:36:07;11.15;;;1.52;;
72156;SDS011;60035;52.122;5.406;2023-08-07T00:38:34;11.98;;;1.35;;
72156;SDS011;60035;52.122;5.406;2023-08-07T00:41:01;9.98;;;1.40;;
72156;SDS011;60035;52.122;5.406;2023-08-07T00:43:27;6.95;;;1.30;;
72156;SDS011;60035;52.122;5.406;2023-08-07T00:45:55;11.10;;;1.30;;
72156;SDS011;60035;52.122;5.406;2023-08-07T00:48:22;9.43;;;1.40;;
72156;SDS011;60035;52.122;5.406;2023-08-07T00:50:48;15.73;;;1.63;;
72156;SDS011;60035;52.122;5.406;2023-08-07T00:53:17;9.95;;;1.20;;
72156;SDS011;60035;52.122;5.406;2023-08-07T00:55:43;9.40;;;1.75;;
72156;SDS011;60035;52.122;5.406;2023-08-07T00:58:10;10.02;;;1.55;;
72156;SDS011;60035;52.122;5.406;2023-08-07T01:00:37;8.70;;;1.60;;
72156;SDS011;60035;52.122;5.406;2023-08-07T01:03:05;7.40;;;1.55;;
72156;SDS011;60035;52.122;5.406;2023-08-07T01:05:33;11.10;;;1.70;;
72156;SDS011;60035;52.122;5.406;2023-08-07T01:08:00;12.27;;;1.83;;
72156;SDS011;60035;52.122;5.406;2023-08-07T01:10:32;11.52;;;1.70;;
72156;SDS011;60035;52.122;5.406;2023-08-07T01:13:18;5.72;;;1.20;;
72156;SDS011;60035;52.122;5.406;2023-08-07T01:15:48;11.35;;;1.95;;
72156;SDS011;60035;52.122;5.406;2023-08-07T01:18:18;15.23;;;1.90;;
72156;SDS011;60035;52.122;5.406;2023-08-07T01:20:45;10.70;;;1.70;;
72156;SDS011;60035;52.122;5.406;2023-08-07T01:23:12;14.73;;;1.92;;
72156;SDS011;60035;52.122;5.406;2023-08-07T01:25:38;8.90;;;1.70;;
72156;SDS011;60035;52.122;5.406;2023-08-07T01:28:06;19.98;;;2.00;;
72156;SDS011;60035;52.122;5.406;2023-08-07T01:30:48;9.35;;;1.92;;
72156;SDS011;60035;52.122;5.406;2023-08-07T01:36:07;7.70;;;1.73;;
72156;SDS011;60035;52.122;5.406;2023-08-07T01:38:36;12.65;;;1.73;;
72156;SDS011;60035;52.122;5.406;2023-08-07T01:41:04;11.88;;;1.67;;
72156;SDS011;60035;52.122;5.406;2023-08-07T01:43:31;10.82;;;1.67;;
72156;SDS011;60035;52.122;5.406;2023-08-07T01:45:58;8.93;;;1.60;;
72156;SDS011;60035;52.122;5.406;2023-08-07T01:48:26;12.02;;;2.00;;
72156;SDS011;60035;52.122;5.406;2023-08-07T01:50:53;10.50;;;1.67;;
72156;SDS011;60035;52.122;5.406;2023-08-07T01:53:20;9.38;;;1.95;;
72156;SDS011;60035;52.122;5.406;2023-08-07T01:55:46;13.57;;;1.80;;
72156;SDS011;60035;52.122;5.406;2023-08-07T01:58:13;11.23;;;1.88;;
72156;SDS011;60035;52.122;5.406;2023-08-07T02:00:39;10.27;;;1.95;;
72156;SDS011;60035;52.122;5.406;2023-08-07T02:03:06;10.70;;;1.75;;
72156;SDS011;60035;52.122;5.406;2023-08-07T02:05:32;11.07;;;2.00;;
72156;SDS011;60035;52.122;5.406;2023-08-07T02:07:59;9.77;;;1.58;;
72156;SDS011;60035;52.122;5.406;2023-08-07T02:10:26;12.98;;;1.90;;
72156;SDS011;60035;52.122;5.406;2023-08-07T02:12:52;10.18;;;1.95;;
72156;SDS011;60035;52.122;5.406;2023-08-07T02:15:19;9.52;;;1.50;;
72156;SDS011;60035;52.122;5.406;2023-08-07T02:17:45;9.65;;;1.65;;
72156;SDS011;60035;52.122;5.406;2023-08-07T02:20:12;13.73;;;1.90;;
72156;SDS011;60035;52.122;5.406;2023-08-07T02:22:39;11.13;;;1.58;;
72156;SDS011;60035;52.122;5.406;2023-08-07T02:25:05;11.65;;;1.65;;
72156;SDS011;60035;52.122;5.406;2023-08-07T02:27:32;11.32;;;1.80;;
72156;SDS011;60035;52.122;5.406;2023-08-07T02:29:58;12.52;;;2.05;;
72156;SDS011;60035;52.122;5.406;2023-08-07T02:32:25;10.05;;;1.45;;
72156;SDS011;60035;52.122;5.406;2023-08-07T02:34:52;6.22;;;1.50;;
72156;SDS011;60035;52.122;5.406;2023-08-07T02:37:18;10.80;;;1.73;;
72156;SDS011;60035;52.122;5.406;2023-08-07T02:39:47;7.05;;;1.58;;
72156;SDS011;60035;52.122;5.406;2023-08-07T02:42:13;11.32;;;1.83;;
72156;SDS011;60035;52.122;5.406;2023-08-07T02:44:40;8.15;;;1.33;;
72156;SDS011;60035;52.122;5.406;2023-08-07T02:47:06;12.82;;;1.80;;
72156;SDS011;60035;52.122;5.406;2023-08-07T02:49:33;7.90;;;1.75;;
72156;SDS011;60035;52.122;5.406;2023-08-07T02:51:59;11.98;;;1.90;;
72156;SDS011;60035;52.122;5.406;2023-08-07T02:54:26;8.05;;;1.80;;
72156;SDS011;60035;52.122;5.406;2023-08-07T02:56:52;14.02;;;1.73;;
72156;SDS011;60035;52.122;5.406;2023-08-07T02:59:19;10.52;;;1.95;;
72156;SDS011;60035;52.122;5.406;2023-08-07T03:01:46;12.02;;;1.88;;
72156;SDS011;60035;52.122;5.406;2023-08-07T03:04:13;6.95;;;1.48;;
72156;SDS011;60035;52.122;5.406;2023-08-07T03:06:39;10.65;;;1.77;;
72156;SDS011;60035;52.122;5.406;2023-08-07T03:09:06;10.52;;;1.48;;
72156;SDS011;60035;52.122;5.406;2023-08-07T03:11:32;7.72;;;1.55;;
72156;SDS011;60035;52.122;5.406;2023-08-07T03:13:59;12.23;;;1.60;;
72156;SDS011;60035;52.122;5.406;2023-08-07T03:16:25;6.47;;;1.40;;
72156;SDS011;60035;52.122;5.406;2023-08-07T03:18:52;9.02;;;1.65;;
72156;SDS011;60035;52.122;5.406;2023-08-07T03:21:18;10.82;;;1.58;;
72156;SDS011;60035;52.122;5.406;2023-08-07T03:23:45;6.38;;;1.10;;
72156;SDS011;60035;52.122;5.406;2023-08-07T03:26:12;5.20;;;1.45;;
72156;SDS011;60035;52.122;5.406;2023-08-07T03:28:42;9.93;;;1.50;;
72156;SDS011;60035;52.122;5.406;2023-08-07T03:31:08;5.60;;;1.20;;
72156;SDS011;60035;52.122;5.406;2023-08-07T03:33:35;5.00;;;1.13;;
72156;SDS011;60035;52.122;5.406;2023-08-07T03:36:01;7.28;;;1.45;;
72156;SDS011;60035;52.122;5.406;2023-08-07T03:38:28;7.70;;;1.52;;
72156;SDS011;60035;52.122;5.406;2023-08-07T03:40:55;8.05;;;1.30;;
72156;SDS011;60035;52.122;5.406;2023-08-07T03:43:21;6.18;;;1.20;;
72156;SDS011;60035;52.122;5.406;2023-08-07T03:45:53;6.15;;;1.20;;
72156;SDS011;60035;52.122;5.406;2023-08-07T03:48:20;10.43;;;1.63;;
72156;SDS011;60035;52.122;5.406;2023-08-07T03:50:47;5.15;;;1.30;;
72156;SDS011;60035;52.122;5.406;2023-08-07T03:53:13;6.82;;;1.27;;
72156;SDS011;60035;52.122;5.406;2023-08-07T03:55:40;8.45;;;1.40;;
72156;SDS011;60035;52.122;5.406;2023-08-07T03:58:08;7.55;;;1.85;;
72156;SDS011;60035;52.122;5.406;2023-08-07T04:00:34;7.25;;;1.50;;
72156;SDS011;60035;52.122;5.406;2023-08-07T04:03:01;8.90;;;1.55;;
72156;SDS011;60035;52.122;5.406;2023-08-07T04:05:28;9.85;;;1.70;;
72156;SDS011;60035;52.122;5.406;2023-08-07T04:07:55;9.40;;;1.38;;
72156;SDS011;60035;52.122;5.406;2023-08-07T04:10:22;7.72;;;1.52;;
72156;SDS011;60035;52.122;5.406;2023-08-07T04:12:48;7.72;;;1.40;;
72156;SDS011;60035;52.122;5.406;2023-08-07T04:15:16;9.90;;;1.45;;
72156;SDS011;60035;52.122;5.406;2023-08-07T04:17:42;6.43;;;1.33;;
72156;SDS011;60035;52.122;5.406;2023-08-07T04:20:09;9.35;;;1.75;;
72156;SDS011;60035;52.122;5.406;2023-08-07T04:22:36;11.27;;;1.63;;
72156;SDS011;60035;52.122;5.406;2023-08-07T04:25:03;10.82;;;2.13;;
72156;SDS011;60035;52.122;5.406;2023-08-07T04:27:29;7.07;;;1.80;;
72156;SDS011;60035;52.122;5.406;2023-08-07T04:29:56;13.43;;;1.60;;
72156;SDS011;60035;52.122;5.406;2023-08-07T04:32:22;10.40;;;1.60;;
72156;SDS011;60035;52.122;5.406;2023-08-07T04:34:51;14.40;;;2.08;;
72156;SDS011;60035;52.122;5.406;2023-08-07T04:37:18;10.43;;;1.80;;
72156;SDS011;60035;52.122;5.406;2023-08-07T04:39:45;6.53;;;1.45;;
72156;SDS011;60035;52.122;5.406;2023-08-07T04:42:11;9.68;;;1.85;;
72156;SDS011;60035;52.122;5.406;2023-08-07T04:44:38;12.02;;;1.60;;
72156;SDS011;60035;52.122;5.406;2023-08-07T04:47:04;9.52;;;2.15;;
72156;SDS011;60035;52.122;5.406;2023-08-07T04:49:31;8.57;;;1.98;;
72156;SDS011;60035;52.122;5.406;2023-08-07T04:51:58;11.20;;;1.85;;
72156;SDS011;60035;52.122;5.406;2023-08-07T04:54:32;7.97;;;1.60;;
72156;SDS011;60035;52.122;5.406;2023-08-07T04:56:58;11.57;;;2.38;;
72156;SDS011;60035;52.122;5.406;2023-08-07T04:59:25;15.43;;;2.22;;
72156;SDS011;60035;52.122;5.406;2023-08-07T05:01:52;8.55;;;1.50;;
72156;SDS011;60035;52.122;5.406;2023-08-07T05:04:18;8.48;;;1.95;;
72156;SDS011;60035;52.122;5.406;2023-08-07T05:06:47;9.60;;;2.03;;
72156;SDS011;60035;52.122;5.406;2023-08-07T05:09:15;9.07;;;1.90;;
72156;SDS011;60035;52.122;5.406;2023-08-07T05:11:41;12.20;;;1.60;;
72156;SDS011;60035;52.122;5.406;2023-08-07T05:14:08;8.50;;;1.67;;
72156;SDS011;60035;52.122;5.406;2023-08-07T05:16:35;8.90;;;1.52;;
72156;SDS011;60035;52.122;5.406;2023-08-07T05:19:01;13.93;;;2.08;;
72156;SDS011;60035;52.122;5.406;2023-08-07T05:21:28;9.98;;;1.27;;
72156;SDS011;60035;52.122;5.406;2023-08-07T05:23:54;9.52;;;1.98;;
72156;SDS011;60035;52.122;5.406;2023-08-07T05:26:21;10.80;;;2.10;;
72156;SDS011;60035;52.122;5.406;2023-08-07T05:28:48;7.53;;;1.90;;
72156;SDS011;60035;52.122;5.406;2023-08-07T05:31:14;6.90;;;1.60;;
72156;SDS011;60035;52.122;5.406;2023-08-07T05:33:41;7.88;;;1.63;;
72156;SDS011;60035;52.122;5.406;2023-08-07T05:36:07;11.65;;;1.55;;
72156;SDS011;60035;52.122;5.406;2023-08-07T05:38:34;10.10;;;1.67;;
72156;SDS011;60035;52.122;5.406;2023-08-07T05:41:01;7.10;;;1.73;;
72156;SDS011;60035;52.122;5.406;2023-08-07T05:43:27;8.30;;;1.60;;
72156;SDS011;60035;52.122;5.406;2023-08-07T05:45:54;9.35;;;1.63;;
72156;SDS011;60035;52.122;5.406;2023-08-07T05:48:21;10.98;;;1.88;;
72156;SDS011;60035;52.122;5.406;2023-08-07T05:50:47;10.90;;;1.73;;
72156;SDS011;60035;52.122;5.406;2023-08-07T05:53:14;5.78;;;1.52;;
72156;SDS011;60035;52.122;5.406;2023-08-07T05:55:40;14.10;;;1.92;;
72156;SDS011;60035;52.122;5.406;2023-08-07T05:58:08;9.40;;;2.28;;
72156;SDS011;60035;52.122;5.406;2023-08-07T06:00:34;13.13;;;2.40;;
72156;SDS011;60035;52.122;5.406;2023-08-07T06:03:01;8.43;;;1.80;;
72156;SDS011;60035;52.122;5.406;2023-08-07T06:05:27;8.20;;;1.70;;
72156;SDS011;60035;52.122;5.406;2023-08-07T06:07:54;9.60;;;1.60;;
72156;SDS011;60035;52.122;5.406;2023-08-07T06:10:21;11.88;;;2.17;;
72156;SDS011;60035;52.122;5.406;2023-08-07T06:12:47;9.07;;;1.85;;
72156;SDS011;60035;52.122;5.406;2023-08-07T06:15:14;10.90;;;1.77;;
72156;SDS011;60035;52.122;5.406;2023-08-07T06:17:40;14.25;;;2.15;;
72156;SDS011;60035;52.122;5.406;2023-08-07T06:20:07;13.77;;;1.98;;
72156;SDS011;60035;52.122;5.406;2023-08-07T06:22:37;11.18;;;2.35;;
72156;SDS011;60035;52.122;5.406;2023-08-07T06:25:04;9.90;;;1.88;;
72156;SDS011;60035;52.122;5.406;2023-08-07T06:27:33;9.63;;;1.85;;
72156;SDS011;60035;52.122;5.406;2023-08-07T06:29:59;9.10;;;2.00;;
72156;SDS011;60035;52.122;5.406;2023-08-07T06:32:26;13.32;;;2.38;;
72156;SDS011;60035;52.122;5.406;2023-08-07T06:34:53;15.75;;;2.08;;
72156;SDS011;60035;52.122;5.406;2023-08-07T06:37:19;10.25;;;2.22;;
72156;SDS011;60035;52.122;5.406;2023-08-07T06:39:46;12.05;;;1.88;;
72156;SDS011;60035;52.122;5.406;2023-08-07T06:42:14;11.98;;;2.35;;
72156;SDS011;60035;52.122;5.406;2023-08-07T06:44:41;12.07;;;2.15;;
72156;SDS011;60035;52.122;5.406;2023-08-07T06:47:07;9.27;;;2.20;;
72156;SDS011;60035;52.122;5.406;2023-08-07T06:49:36;9.57;;;2.35;;
72156;SDS011;60035;52.122;5.406;2023-08-07T06:52:03;11.95;;;1.83;;
72156;SDS011;60035;52.122;5.406;2023-08-07T06:54:29;10.65;;;2.15;;
72156;SDS011;60035;52.122;5.406;2023-08-07T06:56:56;14.30;;;2.15;;
72156;SDS011;60035;52.122;5.406;2023-08-07T06:59:23;8.23;;;2.13;;
72156;SDS011;60035;52.122;5.406;2023-08-07T07:01:50;12.63;;;2.33;;
72156;SDS011;60035;52.122;5.406;2023-08-07T07:04:17;12.52;;;1.90;;
72156;SDS011;60035;52.122;5.406;2023-08-07T07:06:44;12.70;;;2.42;;
72156;SDS011;60035;52.122;5.406;2023-08-07T07:09:11;11.13;;;2.13;;
72156;SDS011;60035;52.122;5.406;2023-08-07T07:11:42;11.02;;;2.30;;
72156;SDS011;60035;52.122;5.406;2023-08-07T07:14:10;9.20;;;2.08;;
72156;SDS011;60035;52.122;5.406;2023-08-07T07:16:36;10.35;;;1.88;;
72156;SDS011;60035;52.122;5.406;2023-08-07T07:19:04;11.15;;;2.08;;
72156;SDS011;60035;52.122;5.406;2023-08-07T07:21:34;14.27;;;2.92;;
72156;SDS011;60035;52.122;5.406;2023-08-07T07:24:01;8.88;;;1.98;;
72156;SDS011;60035;52.122;5.406;2023-08-07T07:26:28;9.95;;;2.20;;
72156;SDS011;60035;52.122;5.406;2023-08-07T07:28:55;10.73;;;2.03;;
72156;SDS011;60035;52.122;5.406;2023-08-07T07:31:21;11.35;;;2.28;;
72156;SDS011;60035;52.122;5.406;2023-08-07T07:33:48;12.13;;;2.40;;
72156;SDS011;60035;52.122;5.406;2023-08-07T07:36:15;9.50;;;2.20;;
72156;SDS011;60035;52.122;5.406;2023-08-07T07:38:45;10.85;;;2.45;;
72156;SDS011;60035;52.122;5.406;2023-08-07T07:41:16;10.30;;;2.10;;
72156;SDS011;60035;52.122;5.406;2023-08-07T07:43:43;8.85;;;2.10;;
72156;SDS011;60035;52.122;5.406;2023-08-07T07:46:10;13.15;;;2.53;;
72156;SDS011;60035;52.122;5.406;2023-08-07T07:48:37;10.00;;;1.92;;
72156;SDS011;60035;52.122;5.406;2023-08-07T07:51:03;9.30;;;2.22;;
72156;SDS011;60035;52.122;5.406;2023-08-07T07:53:30;10.07;;;2.38;;
72156;SDS011;60035;52.122;5.406;2023-08-07T07:55:57;12.40;;;2.10;;
72156;SDS011;60035;52.122;5.406;2023-08-07T07:58:24;16.80;;;2.83;;
72156;SDS011;60035;52.122;5.406;2023-08-07T08:00:50;8.32;;;2.35;;
72156;SDS011;60035;52.122;5.406;2023-08-07T08:03:20;13.82;;;2.38;;
72156;SDS011;60035;52.122;5.406;2023-08-07T08:05:50;15.88;;;2.60;;
72156;SDS011;60035;52.122;5.406;2023-08-07T08:08:17;15.95;;;2.47;;
72156;SDS011;60035;52.122;5.406;2023-08-07T08:10:44;11.68;;;2.17;;
72156;SDS011;60035;52.122;5.406;2023-08-07T08:13:14;11.50;;;2.30;;
72156;SDS011;60035;52.122;5.406;2023-08-07T08:15:42;9.27;;;2.17;;
72156;SDS011;60035;52.122;5.406;2023-08-07T08:18:09;12.82;;;2.63;;
72156;SDS011;60035;52.122;5.406;2023-08-07T08:20:36;12.85;;;2.00;;
72156;SDS011;60035;52.122;5.406;2023-08-07T08:23:03;11.73;;;2.30;;
72156;SDS011;60035;52.122;5.406;2023-08-07T08:25:31;10.82;;;2.42;;
72156;SDS011;60035;52.122;5.406;2023-08-07T08:27:59;9.90;;;2.13;;
72156;SDS011;60035;52.122;5.406;2023-08-07T08:30:26;8.98;;;1.90;;
72156;SDS011;60035;52.122;5.406;2023-08-07T08:32:54;8.48;;;1.60;;
72156;SDS011;60035;52.122;5.406;2023-08-07T08:35:20;8.82;;;2.00;;
72156;SDS011;60035;52.122;5.406;2023-08-07T08:37:47;9.43;;;1.85;;
72156;SDS011;60035;52.122;5.406;2023-08-07T08:40:14;10.05;;;1.80;;
72156;SDS011;60035;52.122;5.406;2023-08-07T08:42:44;11.63;;;2.28;;
72156;SDS011;60035;52.122;5.406;2023-08-07T08:45:12;11.32;;;1.60;;
72156;SDS011;60035;52.122;5.406;2023-08-07T08:47:40;12.07;;;1.90;;
72156;SDS011;60035;52.122;5.406;2023-08-07T08:50:08;7.82;;;1.60;;
72156;SDS011;60035;52.122;5.406;2023-08-07T08:52:38;8.82;;;1.30;;
72156;SDS011;60035;52.122;5.406;2023-08-07T08:55:08;8.43;;;1.83;;
72156;SDS011;60035;52.122;5.406;2023-08-07T08:57:35;8.70;;;1.90;;
72156;SDS011;60035;52.122;5.406;2023-08-07T09:00:02;10.55;;;1.92;;
72156;SDS011;60035;52.122;5.406;2023-08-07T09:02:50;12.35;;;1.90;;
72156;SDS011;60035;52.122;5.406;2023-08-07T09:05:18;9.95;;;1.70;;
72156;SDS011;60035;52.122;5.406;2023-08-07T09:07:46;7.32;;;1.63;;
72156;SDS011;60035;52.122;5.406;2023-08-07T09:10:14;12.23;;;1.85;;
72156;SDS011;60035;52.122;5.406;2023-08-07T09:12:44;7.80;;;1.98;;
72156;SDS011;60035;52.122;5.406;2023-08-07T09:15:19;12.07;;;1.80;;
72156;SDS011;60035;52.122;5.406;2023-08-07T09:17:46;10.20;;;2.22;;
72156;SDS011;60035;52.122;5.406;2023-08-07T09:20:13;8.38;;;1.63;;
72156;SDS011;60035;52.122;5.406;2023-08-07T09:22:41;7.13;;;1.48;;
72156;SDS011;60035;52.122;5.406;2023-08-07T09:25:08;7.35;;;1.88;;
72156;SDS011;60035;52.122;5.406;2023-08-07T09:27:38;12.30;;;2.10;;
72156;SDS011;60035;52.122;5.406;2023-08-07T09:30:06;9.68;;;1.92;;
72156;SDS011;60035;52.122;5.406;2023-08-07T09:32:36;12.90;;;1.70;;
72156;SDS011;60035;52.122;5.406;2023-08-07T09:35:03;14.02;;;2.10;;
72156;SDS011;60035;52.122;5.406;2023-08-07T09:37:35;8.27;;;1.75;;
72156;SDS011;60035;52.122;5.406;2023-08-07T09:40:03;8.80;;;1.80;;
72156;SDS011;60035;52.122;5.406;2023-08-07T09:42:30;8.88;;;1.83;;
72156;SDS011;60035;52.122;5.406;2023-08-07T09:45:01;7.15;;;1.40;;
72156;SDS011;60035;52.122;5.406;2023-08-07T09:47:40;7.35;;;1.63;;
72156;SDS011;60035;52.122;5.406;2023-08-07T09:50:15;9.73;;;1.88;;
72156;SDS011;60035;52.122;5.406;2023-08-07T09:52:46;10.43;;;1.70;;
72156;SDS011;60035;52.122;5.406;2023-08-07T09:55:14;10.93;;;1.90;;
72156;SDS011;60035;52.122;5.406;2023-08-07T09:57:43;14.20;;;2.35;;
72156;SDS011;60035;52.122;5.406;2023-08-07T10:00:10;12.38;;;1.95;;
72156;SDS011;60035;52.122;5.406;2023-08-07T10:02:40;10.93;;;1.80;;
72156;SDS011;60035;52.122;5.406;2023-08-07T10:05:10;14.10;;;1.70;;
72156;SDS011;60035;52.122;5.406;2023-08-07T10:07:37;6.32;;;1.73;;
72156;SDS011;60035;52.122;5.406;2023-08-07T10:10:04;12.68;;;1.90;;
72156;SDS011;60035;52.122;5.406;2023-08-07T10:12:33;8.13;;;1.67;;
72156;SDS011;60035;52.122;5.406;2023-08-07T10:15:00;10.05;;;2.10;;
72156;SDS011;60035;52.122;5.406;2023-08-07T10:17:27;9.75;;;1.77;;
72156;SDS011;60035;52.122;5.406;2023-08-07T10:19:56;10.15;;;1.58;;
72156;SDS011;60035;52.122;5.406;2023-08-07T10:22:27;5.78;;;1.73;;
72156;SDS011;60035;52.122;5.406;2023-08-07T10:24:57;6.72;;;1.60;;
72156;SDS011;60035;52.122;5.406;2023-08-07T10:27:25;6.55;;;1.40;;
72156;SDS011;60035;52.122;5.406;2023-08-07T10:29:53;6.22;;;1.48;;
72156;SDS011;60035;52.122;5.406;2023-08-07T10:32:24;6.75;;;1.70;;
72156;SDS011;60035;52.122;5.406;2023-08-07T10:34:52;6.53;;;1.50;;
72156;SDS011;60035;52.122;5.406;2023-08-07T10:40:09;8.18;;;1.50;;
72156;SDS011;60035;52.122;5.406;2023-08-07T10:45:27;8.40;;;1.92;;
72156;SDS011;60035;52.122;5.406;2023-08-07T10:50:56;9.15;;;1.52;;
72156;SDS011;60035;52.122;5.406;2023-08-07T10:53:34;9.43;;;1.77;;
72156;SDS011;60035;52.122;5.406;2023-08-07T10:56:17;8.90;;;1.38;;
72156;SDS011;60035;52.122;5.406;2023-08-07T10:58:57;9.68;;;1.38;;
72156;SDS011;60035;52.122;5.406;2023-08-07T11:03:57;7.20;;;1.50;;
72156;SDS011;60035;52.122;5.406;2023-08-07T11:06:29;8.05;;;1.55;;
72156;SDS011;60035;52.122;5.406;2023-08-07T11:08:58;6.90;;;1.42;;
72156;SDS011;60035;52.122;5.406;2023-08-07T11:11:26;4.93;;;1.30;;
72156;SDS011;60035;52.122;5.406;2023-08-07T11:14:08;7.88;;;1.35;;
72156;SDS011;60035;52.122;5.406;2023-08-07T11:16:42;9.00;;;1.55;;
72156;SDS011;60035;52.122;5.406;2023-08-07T11:19:09;8.63;;;1.55;;
72156;SDS011;60035;52.122;5.406;2023-08-07T11:21:37;8.75;;;1.42;;
72156;SDS011;60035;52.122;5.406;2023-08-07T11:24:04;5.78;;;1.42;;
72156;SDS011;60035;52.122;5.406;2023-08-07T11:26:31;7.55;;;1.52;;
72156;SDS011;60035;52.122;5.406;2023-08-07T11:28:57;8.13;;;1.73;;
72156;SDS011;60035;52.122;5.406;2023-08-07T11:31:24;10.80;;;1.48;;
72156;SDS011;60035;52.122;5.406;2023-08-07T11:33:52;6.40;;;1.63;;
72156;SDS011;60035;52.122;5.406;2023-08-07T11:36:20;9.70;;;1.52;;
72156;SDS011;60035;52.122;5.406;2023-08-07T11:38:47;11.88;;;1.73;;
72156;SDS011;60035;52.122;5.406;2023-08-07T11:41:14;8.25;;;1.30;;
72156;SDS011;60035;52.122;5.406;2023-08-07T11:43:42;8.73;;;1.67;;
72156;SDS011;60035;52.122;5.406;2023-08-07T11:46:10;7.10;;;1.40;;
72156;SDS011;60035;52.122;5.406;2023-08-07T11:48:38;5.45;;;1.55;;
72156;SDS011;60035;52.122;5.406;2023-08-07T11:51:06;8.60;;;1.75;;
72156;SDS011;60035;52.122;5.406;2023-08-07T11:53:35;8.05;;;1.55;;
72156;SDS011;60035;52.122;5.406;2023-08-07T11:56:05;5.50;;;1.40;;
72156;SDS011;60035;52.122;5.406;2023-08-07T11:58:39;7.40;;;1.40;;
72156;SDS011;60035;52.122;5.406;2023-08-07T12:01:10;6.85;;;1.45;;
72156;SDS011;60035;52.122;5.406;2023-08-07T12:03:41;6.03;;;1.50;;
72156;SDS011;60035;52.122;5.406;2023-08-07T12:06:09;9.63;;;2.33;;
72156;SDS011;60035;52.122;5.406;2023-08-07T12:08:36;7.90;;;1.50;;
72156;SDS011;60035;52.122;5.406;2023-08-07T12:11:06;7.90;;;1.90;;
72156;SDS011;60035;52.122;5.406;2023-08-07T12:13:42;8.15;;;1.90;;
72156;SDS011;60035;52.122;5.406;2023-08-07T12:16:11;10.02;;;2.13;;
72156;SDS011;60035;52.122;5.406;2023-08-07T12:18:48;6.85;;;1.30;;
72156;SDS011;60035;52.122;5.406;2023-08-07T12:21:17;6.95;;;1.40;;
72156;SDS011;60035;52.122;5.406;2023-08-07T12:23:50;4.57;;;1.23;;
72156;SDS011;60035;52.122;5.406;2023-08-07T12:26:17;7.55;;;1.50;;
72156;SDS011;60035;52.122;5.406;2023-08-07T12:28:44;5.82;;;1.35;;
72156;SDS011;60035;52.122;5.406;2023-08-07T12:31:10;7.10;;;1.20;;
72156;SDS011;60035;52.122;5.406;2023-08-07T12:33:38;6.18;;;1.30;;
72156;SDS011;60035;52.122;5.406;2023-08-07T12:36:04;6.25;;;1.23;;
72156;SDS011;60035;52.122;5.406;2023-08-07T12:38:44;4.53;;;0.80;;
72156;SDS011;60035;52.122;5.406;2023-08-07T12:41:10;5.78;;;1.13;;
72156;SDS011;60035;52.122;5.406;2023-08-07T12:43:40;5.22;;;1.08;;
72156;SDS011;60035;52.122;5.406;2023-08-07T12:46:07;6.63;;;1.10;;
72156;SDS011;60035;52.122;5.406;2023-08-07T12:48:36;5.00;;;1.00;;
72156;SDS011;60035;52.122;5.406;2023-08-07T12:51:03;4.90;;;0.88;;
72156;SDS011;60035;52.122;5.406;2023-08-07T12:53:29;5.20;;;1.00;;
72156;SDS011;60035;52.122;5.406;2023-08-07T12:55:57;3.80;;;1.00;;
72156;SDS011;60035;52.122;5.406;2023-08-07T12:58:24;4.95;;;1.23;;
72156;SDS011;60035;52.122;5.406;2023-08-07T13:00:52;10.75;;;1.27;;
72156;SDS011;60035;52.122;5.406;2023-08-07T13:03:19;5.55;;;1.10;;
72156;SDS011;60035;52.122;5.406;2023-08-07T13:05:45;5.47;;;1.17;;
72156;SDS011;60035;52.122;5.406;2023-08-07T13:08:12;7.45;;;1.35;;
72156;SDS011;60035;52.122;5.406;2023-08-07T13:10:39;5.88;;;1.30;;
72156;SDS011;60035;52.122;5.406;2023-08-07T13:13:05;5.95;;;1.00;;
72156;SDS011;60035;52.122;5.406;2023-08-07T13:15:32;5.35;;;1.23;;
72156;SDS011;60035;52.122;5.406;2023-08-07T13:17:59;5.22;;;1.02;;
72156;SDS011;60035;52.122;5.406;2023-08-07T13:20:26;4.63;;;1.20;;
72156;SDS011;60035;52.122;5.406;2023-08-07T13:22:53;7.13;;;1.08;;
72156;SDS011;60035;52.122;5.406;2023-08-07T13:25:20;5.55;;;0.82;;
72156;SDS011;60035;52.122;5.406;2023-08-07T13:27:46;6.35;;;1.40;;
72156;SDS011;60035;52.122;5.406;2023-08-07T13:30:13;4.65;;;1.00;;
72156;SDS011;60035;52.122;5.406;2023-08-07T13:32:40;6.30;;;0.98;;
72156;SDS011;60035;52.122;5.406;2023-08-07T13:35:06;5.40;;;0.90;;
72156;SDS011;60035;52.122;5.406;2023-08-07T13:37:33;4.78;;;1.10;;
72156;SDS011;60035;52.122;5.406;2023-08-07T13:40:00;5.50;;;1.20;;
72156;SDS011;60035;52.122;5.406;2023-08-07T13:42:27;4.43;;;1.08;;
72156;SDS011;60035;52.122;5.406;2023-08-07T13:44:57;3.35;;;0.90;;
72156;SDS011;60035;52.122;5.406;2023-08-07T13:47:24;4.28;;;0.93;;
72156;SDS011;60035;52.122;5.406;2023-08-07T13:49:52;4.40;;;1.15;;
72156;SDS011;60035;52.122;5.406;2023-08-07T13:52:20;6.53;;;1.15;;
72156;SDS011;60035;52.122;5.406;2023-08-07T13:54:47;4.88;;;1.00;;
72156;SDS011;60035;52.122;5.406;2023-08-07T13:57:14;5.45;;;1.30;;
72156;SDS011;60035;52.122;5.406;2023-08-07T13:59:40;2.47;;;0.70;;
72156;SDS011;60035;52.122;5.406;2023-08-07T14:02:07;5.40;;;1.08;;
72156;SDS011;60035;52.122;5.406;2023-08-07T14:04:33;4.88;;;1.20;;
72156;SDS011;60035;52.122;5.406;2023-08-07T14:07:01;3.70;;;0.90;;
72156;SDS011;60035;52.122;5.406;2023-08-07T14:09:30;3.03;;;0.75;;
72156;SDS011;60035;52.122;5.406;2023-08-07T14:11:56;4.28;;;0.90;;
72156;SDS011;60035;52.122;5.406;2023-08-07T14:14:26;3.85;;;0.90;;
72156;SDS011;60035;52.122;5.406;2023-08-07T14:16:52;6.35;;;0.98;;
72156;SDS011;60035;52.122;5.406;2023-08-07T14:21:50;5.90;;;0.98;;
72156;SDS011;60035;52.122;5.406;2023-08-07T14:24:17;6.75;;;1.20;;
72156;SDS011;60035;52.122;5.406;2023-08-07T14:26:44;3.08;;;0.73;;
72156;SDS011;60035;52.122;5.406;2023-08-07T14:29:12;3.08;;;0.90;;
72156;SDS011;60035;52.122;5.406;2023-08-07T14:31:39;4.15;;;1.05;;
72156;SDS011;60035;52.122;5.406;2023-08-07T14:34:06;3.53;;;0.93;;
72156;SDS011;60035;52.122;5.406;2023-08-07T14:36:34;4.57;;;1.23;;
72156;SDS011;60035;52.122;5.406;2023-08-07T14:39:00;4.25;;;1.15;;
72156;SDS011;60035;52.122;5.406;2023-08-07T14:41:28;4.15;;;0.98;;
72156;SDS011;60035;52.122;5.406;2023-08-07T14:43:55;4.65;;;1.05;;
72156;SDS011;60035;52.122;5.406;2023-08-07T14:46:21;3.90;;;0.90;;
72156;SDS011;60035;52.122;5.406;2023-08-07T14:48:50;3.17;;;0.80;;
72156;SDS011;60035;52.122;5.406;2023-08-07T14:51:16;4.50;;;1.08;;
72156;SDS011;60035;52.122;5.406;2023-08-07T14:53:43;3.90;;;1.08;;
72156;SDS011;60035;52.122;5.406;2023-08-07T14:56:09;4.45;;;1.13;;
72156;SDS011;60035;52.122;5.406;2023-08-07T14:58:36;5.35;;;1.00;;
72156;SDS011;60035;52.122;5.406;2023-08-07T15:01:03;4.35;;;1.10;;
72156;SDS011;60035;52.122;5.406;2023-08-07T15:03:29;4.72;;;1.10;;